Bellevue, Iowa
Current Conditions -  °F | °C
As of 5:53 AM on Thursday 27 Nov 2014 (Local Time) from KDBQ Reporting Station
Overcast Overcast  
Wind Chill:   Ceiling: 3000
Heat Index: 21°   Visibility: 10mi
Dew Point: 16°   Wind: 16mph
Humidity: 81%   Direction: 320°NW
Pressure: 30.33"   Gusts: NA
Location:  42.26°N, 90.42°W
Report Text: KDBQ 271153Z 32014KT 10SM BKN030 OVC036 M06/M09 A3033 RMK AO2 SLP287 T10611089 11050 21061 53013
Loading
Personal Weather Stations






























Interactive Weather Map New forecast layout! Learn more

10-Day Weather Forecast

Advertisements
Track Severe Weather on mobile